createdAt,value
2023-01-08T00:01:14.917Z,5.95
2023-01-08T00:03:43.028Z,6.03
2023-01-08T00:06:15.451Z,7.53
2023-01-08T00:08:45.055Z,6.80
2023-01-08T00:11:13.386Z,4.50
2023-01-08T00:13:41.938Z,7.75
2023-01-08T00:16:12.428Z,6.68
2023-01-08T00:18:40.559Z,5.20
2023-01-08T00:21:08.914Z,6.03
2023-01-08T00:23:38.071Z,5.38
2023-01-08T00:26:10.094Z,5.45
2023-01-08T00:28:39.270Z,6.75
2023-01-08T00:31:07.965Z,14.40
2023-01-08T00:33:37.523Z,6.57
2023-01-08T00:36:08.822Z,3.97
2023-01-08T00:38:36.779Z,4.28
2023-01-08T00:41:05.895Z,3.08
2023-01-08T00:43:35.292Z,3.50
2023-01-08T00:46:03.282Z,3.38
2023-01-08T00:48:31.353Z,4.68
2023-01-08T00:50:59.191Z,2.33
2023-01-08T00:53:27.104Z,2.22
2023-01-08T00:56:02.102Z,4.38
2023-01-08T00:58:30.266Z,2.95
2023-01-08T01:01:00.362Z,1.58
2023-01-08T01:03:28.927Z,4.47
2023-01-08T01:06:02.818Z,4.03
2023-01-08T01:08:31.128Z,4.55
2023-01-08T01:10:59.019Z,2.20
2023-01-08T01:13:26.857Z,4.88
2023-01-08T01:16:03.958Z,5.38
2023-01-08T01:18:32.582Z,2.28
2023-01-08T01:21:00.560Z,4.43
2023-01-08T01:23:28.970Z,6.40
2023-01-08T01:25:56.715Z,5.53
2023-01-08T01:28:24.686Z,4.93
2023-01-08T01:30:57.348Z,7.75
2023-01-08T01:33:26.597Z,3.17
2023-01-08T01:36:02.299Z,3.10
2023-01-08T01:38:30.615Z,4.38
2023-01-08T01:40:58.647Z,4.82
2023-01-08T01:43:37.190Z,3.80
2023-01-08T01:46:05.975Z,8.07
2023-01-08T01:48:35.537Z,3.10
2023-01-08T01:51:04.218Z,6.22
2023-01-08T01:53:35.818Z,4.22
2023-01-08T01:56:05.666Z,5.00
2023-01-08T01:58:33.845Z,5.05
2023-01-08T02:01:05.601Z,7.88
2023-01-08T02:03:37.554Z,5.90
2023-01-08T02:06:17.616Z,8.13
2023-01-08T02:08:56.345Z,5.07
2023-01-08T02:11:31.630Z,5.30
2023-01-08T02:14:06.421Z,4.57
2023-01-08T02:16:41.413Z,8.10
2023-01-08T02:19:22.007Z,6.30
2023-01-08T02:22:04.101Z,8.73
2023-01-08T02:24:44.608Z,5.18
2023-01-08T02:27:16.065Z,3.70
2023-01-08T02:29:45.254Z,6.85
2023-01-08T02:32:13.078Z,10.55
2023-01-08T02:34:41.500Z,6.32
2023-01-08T02:37:10.884Z,7.32
2023-01-08T02:39:57.991Z,9.15
2023-01-08T02:42:36.521Z,7.45
2023-01-08T02:45:11.626Z,8.48
2023-01-08T02:47:44.876Z,5.60
2023-01-08T02:50:21.364Z,6.47
2023-01-08T02:52:56.975Z,3.72
2023-01-08T02:55:26.551Z,8.07
2023-01-08T02:57:56.480Z,5.10
2023-01-08T03:00:25.052Z,9.85
2023-01-08T03:03:01.682Z,3.83
2023-01-08T03:05:30.553Z,3.13
2023-01-08T03:07:58.752Z,2.83
2023-01-08T03:10:30.005Z,1.92
2023-01-08T03:13:02.720Z,4.10
2023-01-08T03:15:35.777Z,2.47
2023-01-08T03:18:10.951Z,2.70
2023-01-08T03:20:40.558Z,5.97
2023-01-08T03:23:12.135Z,2.75
2023-01-08T03:25:43.914Z,5.30
2023-01-08T03:28:17.696Z,4.60
2023-01-08T03:30:48.735Z,5.22
2023-01-08T03:33:18.668Z,7.00
2023-01-08T03:35:51.637Z,6.70
2023-01-08T03:38:24.147Z,5.43
2023-01-08T03:40:56.653Z,4.25
2023-01-08T03:43:26.287Z,5.07
2023-01-08T03:45:59.740Z,7.13
2023-01-08T03:48:29.602Z,6.97
2023-01-08T03:50:57.656Z,5.15
2023-01-08T03:53:26.289Z,7.82
2023-01-08T03:55:54.266Z,4.43
2023-01-08T03:58:22.306Z,7.43
2023-01-08T04:00:53.219Z,4.53
2023-01-08T04:03:21.241Z,7.65
2023-01-08T04:05:49.142Z,11.88
2023-01-08T04:08:17.547Z,6.57
2023-01-08T04:10:45.422Z,8.23
2023-01-08T04:13:13.152Z,10.77
2023-01-08T04:15:41.042Z,6.68
2023-01-08T04:18:10.665Z,6.90
2023-01-08T04:20:38.555Z,9.75
2023-01-08T04:23:06.787Z,9.70
2023-01-08T04:25:34.672Z,3.72
2023-01-08T04:28:02.559Z,8.45
2023-01-08T04:30:30.378Z,9.27
2023-01-08T04:32:58.762Z,9.05
2023-01-08T04:35:28.133Z,9.60
2023-01-08T04:37:56.497Z,10.55
2023-01-08T04:40:24.403Z,9.32
2023-01-08T04:42:52.308Z,14.02
2023-01-08T04:45:21.101Z,10.63
2023-01-08T04:47:49.197Z,9.93
2023-01-08T04:50:17.165Z,10.13
2023-01-08T04:52:47.015Z,17.00
2023-01-08T04:55:15.050Z,19.00
2023-01-08T04:57:43.235Z,16.50
2023-01-08T05:00:12.613Z,14.07
2023-01-08T05:02:40.880Z,20.95
2023-01-08T05:05:09.211Z,16.45
2023-01-08T05:07:37.544Z,20.08
2023-01-08T05:10:08.316Z,17.75
2023-01-08T05:12:36.151Z,15.43
2023-01-08T05:15:04.617Z,18.88
2023-01-08T05:17:32.395Z,14.02
2023-01-08T05:20:00.335Z,16.33
2023-01-08T05:22:29.064Z,15.85
2023-01-08T05:24:56.869Z,11.07
2023-01-08T05:27:26.269Z,15.85
2023-01-08T05:29:53.995Z,10.80
2023-01-08T05:32:21.799Z,13.77
2023-01-08T05:34:50.484Z,12.45
2023-01-08T05:37:18.879Z,12.02
2023-01-08T05:39:46.714Z,10.80
2023-01-08T05:42:14.467Z,9.10
2023-01-08T05:44:43.700Z,11.90
2023-01-08T05:47:11.778Z,10.35
2023-01-08T05:49:39.519Z,9.73
2023-01-08T05:52:07.777Z,11.27
2023-01-08T05:54:35.672Z,12.65
2023-01-08T05:57:03.444Z,11.27
2023-01-08T05:59:31.735Z,12.25
2023-01-08T06:02:01.271Z,10.68
2023-01-08T06:04:29.282Z,8.18
2023-01-08T06:06:57.645Z,7.78
2023-01-08T06:09:25.572Z,8.20
2023-01-08T06:11:53.909Z,8.25
2023-01-08T06:14:22.314Z,10.57
2023-01-08T06:16:50.131Z,11.27
2023-01-08T06:19:19.472Z,12.00
2023-01-08T06:21:47.681Z,11.43
2023-01-08T06:24:15.492Z,10.10
2023-01-08T06:26:43.364Z,12.73
2023-01-08T06:29:11.769Z,9.27
2023-01-08T06:31:39.751Z,8.63
2023-01-08T06:34:07.580Z,10.48
2023-01-08T06:36:37.285Z,11.40
2023-01-08T06:39:06.729Z,8.65
2023-01-08T06:41:34.852Z,11.75
2023-01-08T06:44:03.261Z,9.82
2023-01-08T06:46:31.785Z,9.10
2023-01-08T06:48:59.688Z,11.13
2023-01-08T06:51:28.009Z,10.65
2023-01-08T06:53:57.202Z,11.48
2023-01-08T06:56:25.133Z,11.18
2023-01-08T06:58:53.671Z,9.27
2023-01-08T07:01:23.079Z,10.70
2023-01-08T07:03:50.907Z,13.77
2023-01-08T07:06:21.404Z,9.88
2023-01-08T07:08:49.907Z,9.43
2023-01-08T07:11:19.067Z,8.02
2023-01-08T07:13:47.419Z,6.80
2023-01-08T07:16:16.310Z,9.63
2023-01-08T07:18:44.901Z,12.30
2023-01-08T07:21:13.642Z,8.27
2023-01-08T07:23:42.018Z,13.05
2023-01-08T07:26:09.943Z,16.92
2023-01-08T07:28:39.847Z,12.15
2023-01-08T07:31:07.848Z,7.35
2023-01-08T07:33:36.360Z,13.10
2023-01-08T07:36:04.750Z,7.88
2023-01-08T07:38:32.600Z,7.30
2023-01-08T07:41:00.387Z,10.35
2023-01-08T07:43:30.043Z,10.30
2023-01-08T07:45:59.312Z,10.65
2023-01-08T07:48:26.980Z,15.15
2023-01-08T07:50:54.762Z,11.18
2023-01-08T07:53:22.455Z,8.25
2023-01-08T07:55:50.147Z,9.15
2023-01-08T07:58:18.299Z,12.38
2023-01-08T08:00:48.481Z,9.52
2023-01-08T08:03:17.741Z,9.38
2023-01-08T08:05:46.140Z,10.48
2023-01-08T08:08:15.025Z,8.60
2023-01-08T08:10:43.796Z,7.30
2023-01-08T08:13:12.698Z,7.45
2023-01-08T08:15:41.244Z,13.25
2023-01-08T08:18:09.868Z,16.20
2023-01-08T08:20:40.064Z,7.20
2023-01-08T08:23:09.718Z,11.80
2023-01-08T08:25:38.169Z,9.90
2023-01-08T08:28:06.883Z,11.30
2023-01-08T08:30:36.550Z,10.77
2023-01-08T08:33:06.392Z,9.57
2023-01-08T08:35:35.573Z,5.75
2023-01-08T08:38:04.974Z,4.45
2023-01-08T08:40:32.975Z,7.82
2023-01-08T08:43:02.547Z,7.40
2023-01-08T08:45:30.647Z,7.70
2023-01-08T08:47:58.370Z,6.50
2023-01-08T08:50:26.686Z,5.50
2023-01-08T08:52:59.495Z,5.47
2023-01-08T08:55:29.189Z,4.03
2023-01-08T08:58:03.858Z,4.32
2023-01-08T09:00:32.410Z,3.95
2023-01-08T09:03:00.232Z,5.75
2023-01-08T09:05:28.670Z,4.45
2023-01-08T09:07:57.187Z,3.33
2023-01-08T09:10:25.231Z,1.98
2023-01-08T09:12:54.948Z,3.92
2023-01-08T09:15:22.781Z,2.05
2023-01-08T09:17:55.674Z,1.17
2023-01-08T09:20:25.062Z,1.17
2023-01-08T09:22:52.961Z,2.60
2023-01-08T09:25:20.892Z,0.68
2023-01-08T09:27:48.951Z,0.60
2023-01-08T09:30:18.188Z,0.70
2023-01-08T09:32:45.915Z,0.88
2023-01-08T09:35:14.179Z,0.63
2023-01-08T09:37:41.975Z,0.60
2023-01-08T09:40:16.825Z,2.30
2023-01-08T09:42:44.750Z,2.40
2023-01-08T09:45:28.743Z,1.00
2023-01-08T09:47:59.237Z,1.70
2023-01-08T09:50:29.295Z,1.15
2023-01-08T09:52:58.476Z,2.55
2023-01-08T09:55:26.823Z,1.02
2023-01-08T09:57:55.468Z,1.40
2023-01-08T10:00:29.053Z,5.05
2023-01-08T10:02:58.452Z,4.35
2023-01-08T10:05:27.991Z,1.73
2023-01-08T10:07:56.503Z,2.22
2023-01-08T10:10:30.119Z,1.33
2023-01-08T10:12:58.103Z,3.95
2023-01-08T10:15:27.395Z,1.50
2023-01-08T10:18:01.898Z,3.65
2023-01-08T10:20:29.908Z,3.80
2023-01-08T10:22:57.819Z,5.72
2023-01-08T10:25:28.734Z,3.60
2023-01-08T10:28:00.267Z,3.78
2023-01-08T10:30:41.669Z,3.47
2023-01-08T10:33:15.887Z,4.97
2023-01-08T10:35:44.601Z,5.95
2023-01-08T10:38:26.939Z,5.00
2023-01-08T10:40:55.119Z,6.57
2023-01-08T10:43:28.670Z,6.32
2023-01-08T10:46:01.640Z,3.33
2023-01-08T10:48:34.880Z,6.78
2023-01-08T10:51:08.378Z,9.75
2023-01-08T10:53:36.119Z,4.43
2023-01-08T10:56:05.638Z,6.60
2023-01-08T10:58:42.883Z,9.05
2023-01-08T11:01:17.436Z,6.88
2023-01-08T11:03:50.701Z,4.57
2023-01-08T11:06:22.650Z,5.18
2023-01-08T11:08:52.577Z,4.95
2023-01-08T11:11:21.086Z,4.70
2023-01-08T11:13:58.769Z,5.57
2023-01-08T11:16:36.740Z,3.40
2023-01-08T11:19:05.910Z,4.28
2023-01-08T11:21:36.143Z,5.18
2023-01-08T11:24:13.446Z,6.60
2023-01-08T11:26:45.027Z,5.53
2023-01-08T11:29:17.164Z,3.80
2023-01-08T11:31:53.700Z,7.75
2023-01-08T11:34:27.295Z,6.43
2023-01-08T11:37:00.480Z,5.53
2023-01-08T11:39:28.873Z,10.88
2023-01-08T11:42:22.116Z,7.45
2023-01-08T11:45:06.659Z,7.35
2023-01-08T11:47:52.648Z,6.47
2023-01-08T11:50:23.990Z,4.53
2023-01-08T11:53:07.478Z,6.22
2023-01-08T11:55:47.863Z,8.70
2023-01-08T11:58:35.033Z,4.45
2023-01-08T12:01:27.159Z,4.90
2023-01-08T12:04:17.253Z,3.78
2023-01-08T12:06:53.959Z,4.13
2023-01-08T12:09:36.829Z,8.57
2023-01-08T12:12:16.331Z,4.32
2023-01-08T12:14:56.382Z,7.00
2023-01-08T12:17:58.693Z,7.03
2023-01-08T12:20:36.761Z,6.53
2023-01-08T12:23:16.549Z,8.50
2023-01-08T12:25:58.459Z,6.63
2023-01-08T12:29:00.271Z,7.20
2023-01-08T12:32:01.845Z,10.88
2023-01-08T12:34:43.307Z,8.57
2023-01-08T12:37:18.212Z,7.15
2023-01-08T12:39:51.446Z,9.35
2023-01-08T12:42:24.752Z,6.35
2023-01-08T12:44:55.687Z,6.05
2023-01-08T12:47:28.844Z,9.45
2023-01-08T12:50:06.577Z,7.88
2023-01-08T12:52:41.885Z,7.13
2023-01-08T12:55:31.608Z,5.65
2023-01-08T12:58:08.142Z,7.05
2023-01-08T13:00:41.925Z,5.43
2023-01-08T13:03:16.141Z,5.68
2023-01-08T13:05:44.981Z,5.25
2023-01-08T13:08:33.465Z,5.03
2023-01-08T13:11:02.473Z,7.97
2023-01-08T13:13:32.794Z,9.23
2023-01-08T13:16:18.922Z,4.65
2023-01-08T13:18:57.556Z,13.75
2023-01-08T13:21:31.959Z,9.88
2023-01-08T13:24:26.785Z,4.90
2023-01-08T13:26:55.289Z,7.57
2023-01-08T13:29:37.912Z,5.07
2023-01-08T13:32:06.568Z,7.63
2023-01-08T13:34:40.560Z,8.23
2023-01-08T13:37:16.477Z,7.72
2023-01-08T13:39:52.326Z,7.10
2023-01-08T13:42:29.087Z,4.97
2023-01-08T13:45:02.202Z,8.65
2023-01-08T13:47:33.577Z,6.20
2023-01-08T13:50:04.217Z,8.10
2023-01-08T13:52:43.216Z,5.63
2023-01-08T13:55:19.195Z,5.13
2023-01-08T13:57:50.870Z,6.85
2023-01-08T14:00:23.631Z,5.65
2023-01-08T14:02:52.169Z,3.97
2023-01-08T14:05:23.368Z,6.43
2023-01-08T14:07:51.436Z,8.50
2023-01-08T14:10:21.870Z,5.32
2023-01-08T14:12:51.351Z,4.95
2023-01-08T14:15:24.293Z,11.02
2023-01-08T14:17:52.787Z,7.55
2023-01-08T14:20:34.310Z,6.40
2023-01-08T14:23:04.522Z,7.03
2023-01-08T14:25:33.762Z,7.70
2023-01-08T14:28:04.189Z,8.25
2023-01-08T14:30:32.954Z,4.75
2023-01-08T14:33:01.871Z,3.67
2023-01-08T14:35:34.889Z,4.97
2023-01-08T14:38:05.713Z,6.20
2023-01-08T14:40:38.483Z,8.10
2023-01-08T14:43:10.555Z,4.63
2023-01-08T14:45:41.418Z,10.75
2023-01-08T14:48:16.546Z,5.78
2023-01-08T14:50:46.534Z,5.20
2023-01-08T14:53:25.322Z,6.35
2023-01-08T14:55:58.296Z,5.40
2023-01-08T14:58:28.000Z,6.03
2023-01-08T15:01:00.530Z,7.53
2023-01-08T15:03:32.176Z,8.13
2023-01-08T15:06:00.964Z,6.95
2023-01-08T15:08:34.527Z,7.50
2023-01-08T15:11:07.483Z,5.15
2023-01-08T15:13:38.139Z,7.68
2023-01-08T15:16:10.364Z,7.00
2023-01-08T15:18:44.488Z,10.93
2023-01-08T15:21:18.767Z,8.80
2023-01-08T15:23:49.687Z,7.45
2023-01-08T15:26:20.045Z,9.77
2023-01-08T15:28:52.542Z,9.00
2023-01-08T15:31:28.845Z,7.47
2023-01-08T15:33:57.086Z,9.40
2023-01-08T15:36:24.819Z,6.75
2023-01-08T15:38:53.806Z,9.55
2023-01-08T15:41:41.899Z,11.35
2023-01-08T15:44:12.822Z,9.32
2023-01-08T15:46:40.619Z,10.35
2023-01-08T15:49:08.460Z,8.48
2023-01-08T15:51:38.507Z,5.45
2023-01-08T15:54:06.578Z,9.20
2023-01-08T15:56:35.869Z,8.57
2023-01-08T15:59:03.918Z,9.30
2023-01-08T16:01:33.711Z,9.50
2023-01-08T16:04:01.866Z,16.65
2023-01-08T16:06:29.768Z,11.98
2023-01-08T16:09:00.344Z,6.70
2023-01-08T16:11:28.187Z,6.72
2023-01-08T16:13:57.805Z,10.15
2023-01-08T16:16:25.780Z,8.80
2023-01-08T16:18:53.667Z,8.05
2023-01-08T16:21:21.821Z,5.35
2023-01-08T16:23:49.705Z,5.45
2023-01-08T16:26:17.855Z,6.55
2023-01-08T16:34:26.458Z,5.00
2023-01-08T16:39:43.905Z,9.02
2023-01-08T16:42:12.086Z,9.88
2023-01-08T16:44:41.147Z,7.20
2023-01-08T16:47:10.756Z,9.32
2023-01-08T16:49:40.820Z,10.63
2023-01-08T16:52:10.972Z,7.57
2023-01-08T16:54:39.130Z,5.70
2023-01-08T16:57:07.046Z,10.63
2023-01-08T16:59:35.695Z,10.23
2023-01-08T17:02:03.620Z,5.90
2023-01-08T17:04:33.538Z,7.57
2023-01-08T17:07:01.639Z,9.35
2023-01-08T17:09:29.500Z,8.85
2023-01-08T17:11:57.451Z,5.57
2023-01-08T17:14:25.940Z,5.47
2023-01-08T17:16:53.697Z,10.32
2023-01-08T17:19:24.458Z,6.47
2023-01-08T17:21:54.512Z,6.50
2023-01-08T17:24:22.446Z,11.27
2023-01-08T17:26:50.560Z,9.38
2023-01-08T17:29:18.911Z,8.32
2023-01-08T17:31:46.808Z,5.05
2023-01-08T17:34:15.174Z,9.32
2023-01-08T17:36:43.713Z,8.45
2023-01-08T17:39:13.763Z,7.18
2023-01-08T17:41:59.667Z,8.55
2023-01-08T17:44:27.872Z,11.57
2023-01-08T17:46:55.888Z,8.25
2023-01-08T17:49:24.413Z,5.85
2023-01-08T17:51:53.393Z,11.23
2023-01-08T17:54:22.623Z,6.70
2023-01-08T17:56:51.479Z,8.57
2023-01-08T17:59:20.656Z,10.05
2023-01-08T18:01:49.521Z,7.78
2023-01-08T18:04:17.905Z,7.10
2023-01-08T18:06:46.490Z,9.55
2023-01-08T18:09:14.404Z,6.60
2023-01-08T18:11:44.959Z,11.75
2023-01-08T18:14:14.704Z,8.15
2023-01-08T18:16:45.634Z,4.35
2023-01-08T18:19:14.409Z,9.60
2023-01-08T18:21:42.623Z,8.10
2023-01-08T18:24:11.063Z,8.73
2023-01-08T18:26:38.919Z,5.22
2023-01-08T18:29:08.487Z,15.07
2023-01-08T18:31:37.031Z,11.35
2023-01-08T18:34:05.012Z,7.75
2023-01-08T18:36:32.950Z,6.38
2023-01-08T18:39:01.464Z,10.75
2023-01-08T18:41:49.151Z,8.23
2023-01-08T18:44:19.870Z,7.55
2023-01-08T18:46:48.259Z,5.25
2023-01-08T18:49:16.942Z,3.67
2023-01-08T18:51:44.750Z,10.50
2023-01-08T18:54:13.093Z,4.22
2023-01-08T18:56:40.996Z,7.47
2023-01-08T18:59:09.219Z,5.55
2023-01-08T19:01:38.830Z,9.10
2023-01-08T19:04:07.422Z,5.32
2023-01-08T19:06:36.327Z,8.15
2023-01-08T19:09:04.593Z,5.03
2023-01-08T19:11:32.634Z,8.57
2023-01-08T19:14:01.035Z,4.88
2023-01-08T19:16:29.076Z,8.35
2023-01-08T19:18:58.763Z,7.93
2023-01-08T19:21:27.443Z,6.60
2023-01-08T19:23:55.527Z,7.88
2023-01-08T19:26:23.469Z,7.40
2023-01-08T19:28:52.028Z,9.10
2023-01-08T19:31:19.974Z,7.30
2023-01-08T19:33:47.918Z,6.90
2023-01-08T19:36:20.209Z,6.13
2023-01-08T19:38:48.463Z,5.82
2023-01-08T19:41:33.483Z,4.93
2023-01-08T19:44:01.403Z,7.85
2023-01-08T19:46:29.749Z,4.88
2023-01-08T19:48:58.621Z,5.65
2023-01-08T19:51:29.252Z,5.93
2023-01-08T19:53:58.893Z,4.40
2023-01-08T19:56:27.229Z,4.32
2023-01-08T19:58:56.472Z,4.13
2023-01-08T20:01:27.761Z,5.10
2023-01-08T20:03:56.762Z,2.33
2023-01-08T20:06:28.803Z,4.80
2023-01-08T20:08:59.100Z,4.78
2023-01-08T20:11:28.512Z,3.42
2023-01-08T20:14:00.408Z,4.35
2023-01-08T20:16:29.794Z,5.32
2023-01-08T20:18:58.244Z,3.47
2023-01-08T20:21:27.595Z,6.28
2023-01-08T20:23:58.700Z,8.40
2023-01-08T20:26:28.488Z,8.23
2023-01-08T20:28:58.577Z,7.65
2023-01-08T20:31:30.669Z,4.47
2023-01-08T20:33:59.750Z,6.20
2023-01-08T20:36:31.941Z,7.20
2023-01-08T20:39:02.763Z,4.15
2023-01-08T20:41:30.816Z,5.15
2023-01-08T20:43:59.202Z,4.80
2023-01-08T20:46:29.776Z,5.07
2023-01-08T20:48:59.848Z,4.43
2023-01-08T20:51:30.278Z,4.57
2023-01-08T20:53:58.385Z,4.13
2023-01-08T20:56:26.302Z,6.28
2023-01-08T20:58:54.870Z,7.60
2023-01-08T21:01:25.927Z,5.47
2023-01-08T21:03:56.965Z,4.03
2023-01-08T21:06:27.224Z,3.63
2023-01-08T21:08:58.396Z,5.88
2023-01-08T21:11:27.115Z,5.80
2023-01-08T21:13:56.794Z,5.68
2023-01-08T21:16:27.555Z,5.53
2023-01-08T21:18:55.662Z,4.70
2023-01-08T21:21:26.936Z,1.95
2023-01-08T21:23:57.400Z,1.85
2023-01-08T21:26:26.161Z,2.75
2023-01-08T21:28:54.208Z,1.90
2023-01-08T21:31:25.372Z,1.65
2023-01-08T21:33:53.456Z,2.10
2023-01-08T21:36:26.991Z,1.88
2023-01-08T21:38:57.267Z,10.80
2023-01-08T21:41:45.340Z,5.40
2023-01-08T21:44:31.219Z,5.15
2023-01-08T21:47:00.591Z,4.28
2023-01-08T21:49:28.978Z,2.92
2023-01-08T21:52:15.393Z,2.72
2023-01-08T21:54:44.568Z,1.65
2023-01-08T21:57:12.616Z,1.88
2023-01-08T21:59:41.030Z,3.03
2023-01-08T22:02:08.930Z,1.85
2023-01-08T22:04:37.266Z,0.88
2023-01-08T22:07:05.710Z,1.05
2023-01-08T22:09:33.552Z,1.63
2023-01-08T22:12:02.819Z,0.93
2023-01-08T22:14:31.363Z,1.05
2023-01-08T22:16:59.270Z,1.30
2023-01-08T22:19:27.103Z,1.00
2023-01-08T22:21:55.653Z,2.15
2023-01-08T22:24:23.485Z,2.17
2023-01-08T22:26:51.504Z,0.80
2023-01-08T22:29:22.961Z,3.03
2023-01-08T22:31:50.842Z,1.10
2023-01-08T22:34:19.067Z,0.40
2023-01-08T22:36:50.959Z,0.88
2023-01-08T22:39:19.300Z,0.82
2023-01-08T22:41:47.111Z,0.70
2023-01-08T22:44:15.307Z,0.80
2023-01-08T22:46:44.640Z,2.85
2023-01-08T22:49:13.517Z,1.45
2023-01-08T22:51:41.885Z,1.80
2023-01-08T22:54:13.872Z,1.42
2023-01-08T22:56:42.623Z,0.82
2023-01-08T22:59:10.571Z,2.38
2023-01-08T23:01:38.513Z,2.47
2023-01-08T23:04:08.195Z,0.82
2023-01-08T23:06:36.071Z,4.30
2023-01-08T23:09:03.924Z,1.48
2023-01-08T23:11:32.544Z,1.77
2023-01-08T23:14:01.890Z,1.17
2023-01-08T23:16:30.030Z,3.97
2023-01-08T23:18:58.650Z,1.48
2023-01-08T23:21:28.475Z,3.22
2023-01-08T23:23:56.265Z,0.90
2023-01-08T23:26:26.847Z,1.10
2023-01-08T23:28:56.060Z,3.38
2023-01-08T23:31:26.886Z,1.77
2023-01-08T23:33:54.836Z,2.72
2023-01-08T23:36:23.736Z,1.92
2023-01-08T23:38:55.328Z,2.13
2023-01-08T23:41:25.961Z,1.83
2023-01-08T23:43:54.776Z,1.35
2023-01-08T23:46:23.149Z,2.15
2023-01-08T23:48:52.240Z,2.25
2023-01-08T23:51:20.023Z,2.45
2023-01-08T23:53:48.364Z,1.42
2023-01-08T23:56:17.854Z,2.47
2023-01-08T23:58:47.737Z,2.17
